sensor_id;sensor_type;location;lat;lon;timestamp;pressure;altitude;pressure_sealevel;temperature;humidity
11099;BME280;12223;42.650;23.364;2023-05-20T00:01:17;94979.97;;;12.04;100.00
11099;BME280;12223;42.650;23.364;2023-05-20T00:03:45;94968.09;;;11.95;100.00
11099;BME280;12223;42.650;23.364;2023-05-20T00:06:15;94968.75;;;11.90;100.00
11099;BME280;12223;42.650;23.364;2023-05-20T00:08:42;94965.88;;;11.92;100.00
11099;BME280;12223;42.650;23.364;2023-05-20T00:11:09;94959.50;;;11.81;100.00
11099;BME280;12223;42.650;23.364;2023-05-20T00:13:36;94964.47;;;11.89;100.00
11099;BME280;12223;42.650;23.364;2023-05-20T00:16:04;94959.44;;;11.88;100.00
11099;BME280;12223;42.650;23.364;2023-05-20T00:18:33;94955.66;;;11.95;100.00
11099;BME280;12223;42.650;23.364;2023-05-20T00:21:10;94962.81;;;11.95;100.00
11099;BME280;12223;42.650;23.364;2023-05-20T00:23:37;94976.81;;;11.95;100.00
11099;BME280;12223;42.650;23.364;2023-05-20T00:26:05;94968.75;;;11.90;100.00
11099;BME280;12223;42.650;23.364;2023-05-20T00:28:31;94961.91;;;11.83;100.00
11099;BME280;12223;42.650;23.364;2023-05-20T00:31:00;94952.03;;;11.72;100.00
11099;BME280;12223;42.650;23.364;2023-05-20T00:33:27;94964.72;;;11.69;100.00
11099;BME280;12223;42.650;23.364;2023-05-20T00:35:53;94966.22;;;11.59;100.00
11099;BME280;12223;42.650;23.364;2023-05-20T00:38:22;94964.91;;;11.50;100.00
11099;BME280;12223;42.650;23.364;2023-05-20T00:40:48;94955.84;;;11.39;100.00
11099;BME280;12223;42.650;23.364;2023-05-20T00:43:16;94934.84;;;11.26;100.00
11099;BME280;12223;42.650;23.364;2023-05-20T00:45:44;94930.81;;;11.23;100.00
11099;BME280;12223;42.650;23.364;2023-05-20T00:48:22;94910.09;;;11.20;100.00
11099;BME280;12223;42.650;23.364;2023-05-20T00:51:14;94898.28;;;11.23;100.00
11099;BME280;12223;42.650;23.364;2023-05-20T00:53:57;94907.53;;;11.14;100.00
11099;BME280;12223;42.650;23.364;2023-05-20T00:56:24;94911.28;;;11.06;100.00
11099;BME280;12223;42.650;23.364;2023-05-20T00:58:51;94884.31;;;10.98;100.00
11099;BME280;12223;42.650;23.364;2023-05-20T01:01:34;94903.84;;;11.15;100.00
11099;BME280;12223;42.650;23.364;2023-05-20T01:04:01;94899.84;;;11.12;100.00
11099;BME280;12223;42.650;23.364;2023-05-20T01:06:28;94911.78;;;11.15;100.00
11099;BME280;12223;42.650;23.364;2023-05-20T01:08:58;94912.81;;;11.14;100.00
11099;BME280;12223;42.650;23.364;2023-05-20T01:11:28;94911.38;;;11.18;100.00
11099;BME280;12223;42.650;23.364;2023-05-20T01:14:02;94912.22;;;10.94;100.00
11099;BME280;12223;42.650;23.364;2023-05-20T01:16:29;94907.22;;;11.04;100.00
11099;BME280;12223;42.650;23.364;2023-05-20T01:18:58;94906.34;;;11.10;100.00
11099;BME280;12223;42.650;23.364;2023-05-20T01:21:29;94914.38;;;11.21;100.00
11099;BME280;12223;42.650;23.364;2023-05-20T01:23:58;94930.00;;;11.23;100.00
11099;BME280;12223;42.650;23.364;2023-05-20T01:26:30;94870.16;;;10.92;100.00
11099;BME280;12223;42.650;23.364;2023-05-20T01:28:57;94936.91;;;11.24;100.00
11099;BME280;12223;42.650;23.364;2023-05-20T01:31:31;94960.38;;;11.14;100.00
11099;BME280;12223;42.650;23.364;2023-05-20T01:34:01;94963.16;;;11.01;100.00
11099;BME280;12223;42.650;23.364;2023-05-20T01:36:28;94934.66;;;10.84;100.00
11099;BME280;12223;42.650;23.364;2023-05-20T01:42:23;94903.50;;;10.68;100.00
11099;BME280;12223;42.650;23.364;2023-05-20T01:44:52;94901.28;;;10.65;100.00
11099;BME280;12223;42.650;23.364;2023-05-20T01:47:19;94894.78;;;10.68;100.00
11099;BME280;12223;42.650;23.364;2023-05-20T01:50:02;94897.94;;;10.76;100.00
11099;BME280;12223;42.650;23.364;2023-05-20T01:52:29;94902.78;;;10.79;100.00
11099;BME280;12223;42.650;23.364;2023-05-20T01:54:56;94895.88;;;10.78;100.00
11099;BME280;12223;42.650;23.364;2023-05-20T01:57:25;94894.56;;;10.87;100.00
11099;BME280;12223;42.650;23.364;2023-05-20T01:59:52;94883.44;;;10.85;100.00
11099;BME280;12223;42.650;23.364;2023-05-20T02:02:18;94899.56;;;10.96;100.00
11099;BME280;12223;42.650;23.364;2023-05-20T02:04:47;94898.19;;;10.93;100.00
11099;BME280;12223;42.650;23.364;2023-05-20T02:07:15;94904.28;;;10.94;100.00
11099;BME280;12223;42.650;23.364;2023-05-20T02:09:43;94903.84;;;10.97;100.00
11099;BME280;12223;42.650;23.364;2023-05-20T02:12:10;94899.78;;;10.94;100.00
11099;BME280;12223;42.650;23.364;2023-05-20T02:14:42;94917.25;;;10.95;100.00
11099;BME280;12223;42.650;23.364;2023-05-20T02:17:09;94909.19;;;10.90;100.00
11099;BME280;12223;42.650;23.364;2023-05-20T02:19:36;94913.66;;;10.89;100.00
11099;BME280;12223;42.650;23.364;2023-05-20T02:22:02;94912.69;;;10.84;100.00
11099;BME280;12223;42.650;23.364;2023-05-20T02:24:29;94916.00;;;10.79;100.00
11099;BME280;12223;42.650;23.364;2023-05-20T02:26:56;94918.50;;;10.74;100.00
11099;BME280;12223;42.650;23.364;2023-05-20T02:29:23;94905.91;;;10.70;100.00
11099;BME280;12223;42.650;23.364;2023-05-20T02:31:53;94905.53;;;10.66;100.00
11099;BME280;12223;42.650;23.364;2023-05-20T02:34:32;94895.84;;;10.60;100.00
11099;BME280;12223;42.650;23.364;2023-05-20T02:36:58;94887.31;;;10.58;100.00
11099;BME280;12223;42.650;23.364;2023-05-20T02:39:25;94891.78;;;10.58;100.00
11099;BME280;12223;42.650;23.364;2023-05-20T02:41:52;94892.81;;;10.57;100.00
11099;BME280;12223;42.650;23.364;2023-05-20T02:44:20;94885.50;;;10.59;100.00
11099;BME280;12223;42.650;23.364;2023-05-20T02:46:47;94881.06;;;10.53;100.00
11099;BME280;12223;42.650;23.364;2023-05-20T02:49:15;94890.97;;;10.57;100.00
11099;BME280;12223;42.650;23.364;2023-05-20T02:51:42;94888.13;;;10.59;100.00
11099;BME280;12223;42.650;23.364;2023-05-20T02:54:09;94886.72;;;10.56;100.00
11099;BME280;12223;42.650;23.364;2023-05-20T02:56:37;94888.94;;;10.59;100.00
11099;BME280;12223;42.650;23.364;2023-05-20T02:59:04;94889.53;;;10.61;100.00
11099;BME280;12223;42.650;23.364;2023-05-20T03:01:31;94899.66;;;10.64;100.00
11099;BME280;12223;42.650;23.364;2023-05-20T03:03:59;94905.75;;;10.65;100.00
11099;BME280;12223;42.650;23.364;2023-05-20T03:06:28;94909.22;;;10.65;100.00
11099;BME280;12223;42.650;23.364;2023-05-20T03:08:56;94927.69;;;10.65;100.00
11099;BME280;12223;42.650;23.364;2023-05-20T03:11:23;94897.72;;;10.53;100.00
11099;BME280;12223;42.650;23.364;2023-05-20T03:13:50;94922.56;;;10.70;100.00
11099;BME280;12223;42.650;23.364;2023-05-20T03:16:16;94920.53;;;10.72;100.00
11099;BME280;12223;42.650;23.364;2023-05-20T03:18:43;94927.13;;;10.81;100.00
11099;BME280;12223;42.650;23.364;2023-05-20T03:21:12;94935.34;;;10.98;100.00
11099;BME280;12223;42.650;23.364;2023-05-20T03:23:40;94933.81;;;11.09;100.00
11099;BME280;12223;42.650;23.364;2023-05-20T03:26:07;94948.81;;;11.33;100.00
11099;BME280;12223;42.650;23.364;2023-05-20T03:28:35;94968.00;;;11.65;100.00
11099;BME280;12223;42.650;23.364;2023-05-20T03:31:02;94963.03;;;11.93;100.00
11099;BME280;12223;42.650;23.364;2023-05-20T03:33:28;94989.25;;;12.43;100.00
11099;BME280;12223;42.650;23.364;2023-05-20T03:35:55;95003.19;;;12.92;100.00
11099;BME280;12223;42.650;23.364;2023-05-20T03:38:22;95025.31;;;13.39;100.00
11099;BME280;12223;42.650;23.364;2023-05-20T03:40:50;95027.00;;;13.91;100.00
11099;BME280;12223;42.650;23.364;2023-05-20T03:43:17;95029.97;;;14.58;100.00
11099;BME280;12223;42.650;23.364;2023-05-20T03:45:44;95032.19;;;15.23;100.00
11099;BME280;12223;42.650;23.364;2023-05-20T03:48:11;95047.19;;;16.01;100.00
11099;BME280;12223;42.650;23.364;2023-05-20T03:50:38;95046.81;;;16.58;100.00
11099;BME280;12223;42.650;23.364;2023-05-20T03:53:04;95044.81;;;17.18;100.00
11099;BME280;12223;42.650;23.364;2023-05-20T03:55:42;95054.56;;;18.03;90.91
11099;BME280;12223;42.650;23.364;2023-05-20T03:58:10;95058.16;;;18.86;83.31
11099;BME280;12223;42.650;23.364;2023-05-20T04:00:38;95056.91;;;19.40;75.59
11099;BME280;12223;42.650;23.364;2023-05-20T04:03:05;95058.94;;;20.44;69.13
11099;BME280;12223;42.650;23.364;2023-05-20T04:05:34;95062.59;;;21.27;63.89
11099;BME280;12223;42.650;23.364;2023-05-20T04:08:01;95051.78;;;22.05;59.13
11099;BME280;12223;42.650;23.364;2023-05-20T04:10:29;95065.81;;;22.26;56.22
11099;BME280;12223;42.650;23.364;2023-05-20T04:13:06;95060.63;;;22.82;52.28
11099;BME280;12223;42.650;23.364;2023-05-20T04:15:35;95057.59;;;23.45;50.39
11099;BME280;12223;42.650;23.364;2023-05-20T04:18:02;95066.47;;;24.29;47.31
11099;BME280;12223;42.650;23.364;2023-05-20T04:20:29;95071.22;;;25.06;44.75
11099;BME280;12223;42.650;23.364;2023-05-20T04:22:56;95070.19;;;25.51;43.74
11099;BME280;12223;42.650;23.364;2023-05-20T04:25:23;95070.97;;;26.32;41.20
11099;BME280;12223;42.650;23.364;2023-05-20T04:27:51;95054.22;;;27.18;39.90
11099;BME280;12223;42.650;23.364;2023-05-20T04:30:18;95052.31;;;27.96;38.05
11099;BME280;12223;42.650;23.364;2023-05-20T04:32:48;95057.06;;;28.80;36.17
11099;BME280;12223;42.650;23.364;2023-05-20T04:35:16;95068.47;;;29.53;34.71
11099;BME280;12223;42.650;23.364;2023-05-20T04:37:43;95063.69;;;30.24;33.30
11099;BME280;12223;42.650;23.364;2023-05-20T04:40:13;95064.53;;;31.06;32.03
11099;BME280;12223;42.650;23.364;2023-05-20T04:42:41;95072.25;;;31.81;30.75
11099;BME280;12223;42.650;23.364;2023-05-20T04:45:10;95074.91;;;32.17;29.26
11099;BME280;12223;42.650;23.364;2023-05-20T04:47:37;95083.63;;;32.82;28.57
11099;BME280;12223;42.650;23.364;2023-05-20T04:50:07;95078.88;;;33.10;26.88
11099;BME280;12223;42.650;23.364;2023-05-20T04:52:38;95077.25;;;33.41;26.59
11099;BME280;12223;42.650;23.364;2023-05-20T04:55:07;95081.88;;;33.72;26.52
11099;BME280;12223;42.650;23.364;2023-05-20T04:57:35;95073.88;;;34.40;25.35
11099;BME280;12223;42.650;23.364;2023-05-20T05:00:07;95073.50;;;34.03;24.83
11099;BME280;12223;42.650;23.364;2023-05-20T05:02:36;95077.78;;;34.20;25.78
11099;BME280;12223;42.650;23.364;2023-05-20T05:05:06;95074.47;;;34.95;25.34
11099;BME280;12223;42.650;23.364;2023-05-20T05:07:34;95075.69;;;35.46;24.04
11099;BME280;12223;42.650;23.364;2023-05-20T05:10:00;95075.22;;;35.97;23.41
11099;BME280;12223;42.650;23.364;2023-05-20T05:12:27;95079.19;;;35.70;23.58
11099;BME280;12223;42.650;23.364;2023-05-20T05:14:54;95078.47;;;36.06;23.55
11099;BME280;12223;42.650;23.364;2023-05-20T05:17:23;95077.81;;;36.50;23.13
11099;BME280;12223;42.650;23.364;2023-05-20T05:19:53;95078.31;;;36.62;22.70
11099;BME280;12223;42.650;23.364;2023-05-20T05:22:26;95075.72;;;36.73;22.43
11099;BME280;12223;42.650;23.364;2023-05-20T05:24:53;95071.66;;;35.67;23.33
11099;BME280;12223;42.650;23.364;2023-05-20T05:27:20;95070.00;;;35.32;24.40
11099;BME280;12223;42.650;23.364;2023-05-20T05:29:48;95060.84;;;34.56;25.28
11099;BME280;12223;42.650;23.364;2023-05-20T05:32:26;95065.97;;;33.62;26.59
11099;BME280;12223;42.650;23.364;2023-05-20T05:34:54;95052.66;;;32.78;27.88
11099;BME280;12223;42.650;23.364;2023-05-20T05:37:20;95059.25;;;31.90;29.01
11099;BME280;12223;42.650;23.364;2023-05-20T05:40:22;95055.56;;;31.06;30.48
11099;BME280;12223;42.650;23.364;2023-05-20T05:42:49;95059.53;;;29.52;32.49
11099;BME280;12223;42.650;23.364;2023-05-20T05:45:16;95058.25;;;28.62;35.13
11099;BME280;12223;42.650;23.364;2023-05-20T05:47:43;95055.22;;;27.74;37.03
11099;BME280;12223;42.650;23.364;2023-05-20T05:50:10;95052.47;;;27.39;38.27
11099;BME280;12223;42.650;23.364;2023-05-20T05:52:37;95044.03;;;26.75;39.05
11099;BME280;12223;42.650;23.364;2023-05-20T05:55:05;95049.09;;;25.98;40.83
11099;BME280;12223;42.650;23.364;2023-05-20T05:57:35;95050.53;;;25.23;44.33
11099;BME280;12223;42.650;23.364;2023-05-20T06:00:06;95048.13;;;24.13;47.41
11099;BME280;12223;42.650;23.364;2023-05-20T06:02:33;95046.16;;;23.35;48.38
11099;BME280;12223;42.650;23.364;2023-05-20T06:05:02;95048.19;;;22.87;50.11
11099;BME280;12223;42.650;23.364;2023-05-20T06:07:29;95035.28;;;22.60;51.67
11099;BME280;12223;42.650;23.364;2023-05-20T06:09:56;95042.53;;;22.40;52.80
11099;BME280;12223;42.650;23.364;2023-05-20T06:12:23;95038.69;;;22.23;56.76
11099;BME280;12223;42.650;23.364;2023-05-20T06:14:52;95035.31;;;22.12;57.74
11099;BME280;12223;42.650;23.364;2023-05-20T06:17:18;95024.34;;;22.03;57.04
11099;BME280;12223;42.650;23.364;2023-05-20T06:19:45;95026.31;;;22.22;56.24
11099;BME280;12223;42.650;23.364;2023-05-20T06:22:12;95033.81;;;22.25;53.47
11099;BME280;12223;42.650;23.364;2023-05-20T06:24:39;95033.19;;;22.33;56.50
11099;BME280;12223;42.650;23.364;2023-05-20T06:27:06;95031.34;;;22.28;56.46
11099;BME280;12223;42.650;23.364;2023-05-20T06:29:33;95026.88;;;22.66;53.93
11099;BME280;12223;42.650;23.364;2023-05-20T06:32:03;95025.97;;;22.76;51.30
11099;BME280;12223;42.650;23.364;2023-05-20T06:34:30;95023.22;;;22.81;52.02
11099;BME280;12223;42.650;23.364;2023-05-20T06:36:57;95014.91;;;22.96;52.15
11099;BME280;12223;42.650;23.364;2023-05-20T06:39:24;95020.03;;;22.98;49.13
11099;BME280;12223;42.650;23.364;2023-05-20T06:41:51;94993.69;;;22.95;48.19
11099;BME280;12223;42.650;23.364;2023-05-20T06:44:18;95007.88;;;23.19;48.56
11099;BME280;12223;42.650;23.364;2023-05-20T06:46:45;95003.13;;;22.73;46.73
11099;BME280;12223;42.650;23.364;2023-05-20T06:49:13;95001.72;;;22.52;48.35
11099;BME280;12223;42.650;23.364;2023-05-20T06:51:40;95004.25;;;22.20;49.52
11099;BME280;12223;42.650;23.364;2023-05-20T06:54:08;95001.81;;;21.37;51.83
11099;BME280;12223;42.650;23.364;2023-05-20T06:56:36;95020.38;;;21.33;53.16
11099;BME280;12223;42.650;23.364;2023-05-20T06:59:03;95011.16;;;21.05;55.80
11099;BME280;12223;42.650;23.364;2023-05-20T07:01:30;95015.41;;;21.11;55.50
11099;BME280;12223;42.650;23.364;2023-05-20T07:03:57;95021.78;;;20.76;54.25
11099;BME280;12223;42.650;23.364;2023-05-20T07:06:25;95019.06;;;20.81;56.31
11099;BME280;12223;42.650;23.364;2023-05-20T07:08:52;95011.75;;;20.97;56.21
11099;BME280;12223;42.650;23.364;2023-05-20T07:11:18;95008.59;;;21.29;55.54
11099;BME280;12223;42.650;23.364;2023-05-20T07:13:45;95006.78;;;21.53;56.70
11099;BME280;12223;42.650;23.364;2023-05-20T07:16:12;94979.53;;;21.65;53.40
11099;BME280;12223;42.650;23.364;2023-05-20T07:18:39;95000.25;;;21.93;51.31
11099;BME280;12223;42.650;23.364;2023-05-20T07:21:06;95001.97;;;21.79;52.97
11099;BME280;12223;42.650;23.364;2023-05-20T07:23:34;94992.19;;;21.88;50.77
11099;BME280;12223;42.650;23.364;2023-05-20T07:26:01;94998.38;;;22.18;49.48
11099;BME280;12223;42.650;23.364;2023-05-20T07:28:30;94991.31;;;22.45;46.65
11099;BME280;12223;42.650;23.364;2023-05-20T07:30:56;94981.84;;;22.05;47.59
11099;BME280;12223;42.650;23.364;2023-05-20T07:33:24;94990.84;;;21.91;47.71
11099;BME280;12223;42.650;23.364;2023-05-20T07:35:51;94991.38;;;21.93;48.79
11099;BME280;12223;42.650;23.364;2023-05-20T07:38:20;94985.78;;;22.13;48.28
11099;BME280;12223;42.650;23.364;2023-05-20T07:40:49;95006.00;;;22.34;49.55
11099;BME280;12223;42.650;23.364;2023-05-20T07:43:15;95009.06;;;22.46;46.80
11099;BME280;12223;42.650;23.364;2023-05-20T07:45:42;95003.94;;;22.50;48.72
11099;BME280;12223;42.650;23.364;2023-05-20T07:48:27;95004.38;;;22.57;48.53
11099;BME280;12223;42.650;23.364;2023-05-20T07:51:25;95001.50;;;22.72;49.13
11099;BME280;12223;42.650;23.364;2023-05-20T07:53:52;94996.66;;;22.74;47.34
11099;BME280;12223;42.650;23.364;2023-05-20T07:56:21;94993.88;;;22.79;49.93
11099;BME280;12223;42.650;23.364;2023-05-20T07:58:51;94999.13;;;23.08;48.25
11099;BME280;12223;42.650;23.364;2023-05-20T08:01:20;94999.00;;;22.57;47.80
11099;BME280;12223;42.650;23.364;2023-05-20T08:03:47;94990.78;;;22.25;48.39
11099;BME280;12223;42.650;23.364;2023-05-20T08:06:19;94993.72;;;21.71;48.46
11099;BME280;12223;42.650;23.364;2023-05-20T08:08:46;94994.75;;;21.46;50.04
11099;BME280;12223;42.650;23.364;2023-05-20T08:11:13;94989.53;;;20.81;51.02
11099;BME280;12223;42.650;23.364;2023-05-20T08:13:44;94963.59;;;20.67;52.10
11099;BME280;12223;42.650;23.364;2023-05-20T08:16:10;94986.81;;;20.92;54.87
11099;BME280;12223;42.650;23.364;2023-05-20T08:18:38;94968.91;;;20.77;54.05
11099;BME280;12223;42.650;23.364;2023-05-20T08:21:05;94987.38;;;20.83;53.90
11099;BME280;12223;42.650;23.364;2023-05-20T08:23:33;94986.63;;;20.78;55.18
11099;BME280;12223;42.650;23.364;2023-05-20T08:26:00;94979.34;;;20.83;55.79
11099;BME280;12223;42.650;23.364;2023-05-20T08:28:28;94960.63;;;20.73;55.81
11099;BME280;12223;42.650;23.364;2023-05-20T08:30:56;94981.63;;;21.00;54.87
11099;BME280;12223;42.650;23.364;2023-05-20T08:33:23;94984.13;;;20.86;53.22
11099;BME280;12223;42.650;23.364;2023-05-20T08:35:50;94978.91;;;20.66;54.55
11099;BME280;12223;42.650;23.364;2023-05-20T08:38:17;94980.28;;;20.59;54.53
11099;BME280;12223;42.650;23.364;2023-05-20T08:40:45;94976.06;;;20.42;55.66
11099;BME280;12223;42.650;23.364;2023-05-20T08:43:13;94952.88;;;20.62;58.34
11099;BME280;12223;42.650;23.364;2023-05-20T08:45:42;94970.59;;;20.63;55.77
11099;BME280;12223;42.650;23.364;2023-05-20T08:48:10;94953.81;;;20.86;55.52
11099;BME280;12223;42.650;23.364;2023-05-20T08:50:38;94979.91;;;21.19;55.05
11099;BME280;12223;42.650;23.364;2023-05-20T08:53:05;94981.28;;;21.12;56.75
11099;BME280;12223;42.650;23.364;2023-05-20T08:55:37;94981.53;;;21.20;57.44
11099;BME280;12223;42.650;23.364;2023-05-20T08:58:08;94976.22;;;21.10;55.26
11099;BME280;12223;42.650;23.364;2023-05-20T09:00:36;94979.22;;;21.38;55.29
11099;BME280;12223;42.650;23.364;2023-05-20T09:03:06;94973.84;;;21.43;54.26
11099;BME280;12223;42.650;23.364;2023-05-20T09:05:35;94966.91;;;21.65;55.36
11099;BME280;12223;42.650;23.364;2023-05-20T09:08:05;94964.13;;;21.47;54.34
11099;BME280;12223;42.650;23.364;2023-05-20T09:10:33;94968.38;;;21.19;53.32
11099;BME280;12223;42.650;23.364;2023-05-20T09:13:01;94957.19;;;21.02;54.64
11099;BME280;12223;42.650;23.364;2023-05-20T09:15:28;94967.44;;;20.95;54.74
11099;BME280;12223;42.650;23.364;2023-05-20T09:17:58;94953.25;;;20.89;56.60
11099;BME280;12223;42.650;23.364;2023-05-20T09:20:25;94956.19;;;20.93;57.50
11099;BME280;12223;42.650;23.364;2023-05-20T09:22:58;94949.19;;;20.97;59.63
11099;BME280;12223;42.650;23.364;2023-05-20T09:25:25;94926.63;;;20.98;55.62
11099;BME280;12223;42.650;23.364;2023-05-20T09:27:52;94939.41;;;21.16;53.70
11099;BME280;12223;42.650;23.364;2023-05-20T09:30:19;94953.97;;;21.05;55.92
11099;BME280;12223;42.650;23.364;2023-05-20T09:33:04;94937.41;;;20.87;54.92
11099;BME280;12223;42.650;23.364;2023-05-20T09:35:34;94947.81;;;20.99;56.77
11099;BME280;12223;42.650;23.364;2023-05-20T09:38:06;94940.81;;;21.03;57.71
11099;BME280;12223;42.650;23.364;2023-05-20T09:40:34;94926.78;;;21.11;59.57
11099;BME280;12223;42.650;23.364;2023-05-20T09:43:05;94929.13;;;21.23;55.48
11099;BME280;12223;42.650;23.364;2023-05-20T09:45:33;94926.66;;;21.26;57.95
11099;BME280;12223;42.650;23.364;2023-05-20T09:48:01;94924.25;;;21.25;57.20
11099;BME280;12223;42.650;23.364;2023-05-20T09:50:28;94920.13;;;21.38;53.68
11099;BME280;12223;42.650;23.364;2023-05-20T09:53:01;94926.28;;;21.38;57.69
11099;BME280;12223;42.650;23.364;2023-05-20T09:55:30;94928.47;;;21.36;54.80
11099;BME280;12223;42.650;23.364;2023-05-20T09:57:59;94922.47;;;21.44;56.71
11099;BME280;12223;42.650;23.364;2023-05-20T10:00:27;94915.22;;;21.74;57.96
11099;BME280;12223;42.650;23.364;2023-05-20T10:02:54;94919.25;;;22.00;57.50
11099;BME280;12223;42.650;23.364;2023-05-20T10:05:24;94913.81;;;21.76;54.10
11099;BME280;12223;42.650;23.364;2023-05-20T10:11:01;94896.38;;;21.21;54.12
11099;BME280;12223;42.650;23.364;2023-05-20T10:13:50;94877.13;;;21.38;51.47
11099;BME280;12223;42.650;23.364;2023-05-20T10:16:30;94894.72;;;21.54;54.77
11099;BME280;12223;42.650;23.364;2023-05-20T10:19:09;94898.16;;;21.59;53.69
11099;BME280;12223;42.650;23.364;2023-05-20T10:21:39;94904.06;;;21.56;52.95
11099;BME280;12223;42.650;23.364;2023-05-20T10:24:07;94906.72;;;21.33;50.10
11099;BME280;12223;42.650;23.364;2023-05-20T10:26:36;94884.75;;;21.31;53.02
11099;BME280;12223;42.650;23.364;2023-05-20T10:29:13;94886.84;;;21.34;49.02
11099;BME280;12223;42.650;23.364;2023-05-20T10:31:43;94876.06;;;21.39;49.71
11099;BME280;12223;42.650;23.364;2023-05-20T10:34:14;94878.97;;;21.42;47.78
11099;BME280;12223;42.650;23.364;2023-05-20T10:36:44;94890.75;;;21.46;49.11
11099;BME280;12223;42.650;23.364;2023-05-20T10:39:15;94868.41;;;21.51;47.65
11099;BME280;12223;42.650;23.364;2023-05-20T10:41:45;94871.59;;;21.77;48.06
11099;BME280;12223;42.650;23.364;2023-05-20T10:44:12;94856.00;;;21.55;47.73
11099;BME280;12223;42.650;23.364;2023-05-20T10:46:39;94860.53;;;21.59;47.16
11099;BME280;12223;42.650;23.364;2023-05-20T10:49:16;94846.91;;;21.51;47.66
11099;BME280;12223;42.650;23.364;2023-05-20T10:51:46;94858.22;;;21.24;46.82
11099;BME280;12223;42.650;23.364;2023-05-20T10:54:13;94865.47;;;21.23;48.54
11099;BME280;12223;42.650;23.364;2023-05-20T10:56:52;94871.34;;;21.25;48.57
11099;BME280;12223;42.650;23.364;2023-05-20T10:59:25;94860.50;;;21.36;49.87
11099;BME280;12223;42.650;23.364;2023-05-20T11:01:53;94834.03;;;21.48;49.64
11099;BME280;12223;42.650;23.364;2023-05-20T11:04:22;94849.97;;;21.63;48.57
11099;BME280;12223;42.650;23.364;2023-05-20T11:06:50;94838.09;;;21.69;46.95
11099;BME280;12223;42.650;23.364;2023-05-20T11:09:19;94858.38;;;21.56;46.27
11099;BME280;12223;42.650;23.364;2023-05-20T11:11:47;94839.22;;;21.63;47.29
11099;BME280;12223;42.650;23.364;2023-05-20T11:14:16;94851.63;;;21.83;44.88
11099;BME280;12223;42.650;23.364;2023-05-20T11:16:44;94828.91;;;22.18;45.50
11099;BME280;12223;42.650;23.364;2023-05-20T11:19:14;94840.31;;;22.10;44.40
11099;BME280;12223;42.650;23.364;2023-05-20T11:21:45;94808.09;;;22.04;45.58
11099;BME280;12223;42.650;23.364;2023-05-20T11:24:12;94838.66;;;21.90;44.96
11099;BME280;12223;42.650;23.364;2023-05-20T11:26:39;94840.09;;;21.82;44.69
11099;BME280;12223;42.650;23.364;2023-05-20T11:29:06;94822.38;;;21.57;45.34
11099;BME280;12223;42.650;23.364;2023-05-20T11:31:38;94822.47;;;21.71;46.10
11099;BME280;12223;42.650;23.364;2023-05-20T11:34:05;94818.19;;;21.70;45.86
11099;BME280;12223;42.650;23.364;2023-05-20T11:36:32;94813.16;;;21.87;45.16
11099;BME280;12223;42.650;23.364;2023-05-20T11:39:04;94807.25;;;21.85;45.45
11099;BME280;12223;42.650;23.364;2023-05-20T11:41:33;94809.63;;;21.68;45.08
11099;BME280;12223;42.650;23.364;2023-05-20T11:44:01;94808.31;;;21.65;45.39
11099;BME280;12223;42.650;23.364;2023-05-20T11:46:28;94800.09;;;21.76;45.13
11099;BME280;12223;42.650;23.364;2023-05-20T11:48:56;94815.41;;;21.80;44.73
11099;BME280;12223;42.650;23.364;2023-05-20T11:51:25;94807.00;;;21.39;45.32
11099;BME280;12223;42.650;23.364;2023-05-20T11:53:53;94806.03;;;21.54;45.82
11099;BME280;12223;42.650;23.364;2023-05-20T11:56:24;94805.84;;;21.88;45.88
11099;BME280;12223;42.650;23.364;2023-05-20T11:58:51;94810.94;;;22.13;46.34
11099;BME280;12223;42.650;23.364;2023-05-20T12:01:18;94806.78;;;22.21;45.75
11099;BME280;12223;42.650;23.364;2023-05-20T12:03:45;94790.44;;;22.17;46.27
11099;BME280;12223;42.650;23.364;2023-05-20T12:06:14;94802.00;;;22.18;46.68
11099;BME280;12223;42.650;23.364;2023-05-20T12:08:42;94789.03;;;22.01;46.73
11099;BME280;12223;42.650;23.364;2023-05-20T12:11:09;94799.69;;;22.11;46.58
11099;BME280;12223;42.650;23.364;2023-05-20T12:13:37;94793.34;;;22.21;47.40
11099;BME280;12223;42.650;23.364;2023-05-20T12:16:04;94784.69;;;22.24;46.73
11099;BME280;12223;42.650;23.364;2023-05-20T12:18:31;94808.84;;;22.29;47.07
11099;BME280;12223;42.650;23.364;2023-05-20T12:20:59;94804.72;;;21.94;48.41
11099;BME280;12223;42.650;23.364;2023-05-20T12:23:27;94817.88;;;21.53;49.90
11099;BME280;12223;42.650;23.364;2023-05-20T12:25:58;94830.72;;;21.03;51.94
11099;BME280;12223;42.650;23.364;2023-05-20T12:28:25;94822.81;;;20.49;52.38
11099;BME280;12223;42.650;23.364;2023-05-20T12:30:59;94840.66;;;20.25;52.80
11099;BME280;12223;42.650;23.364;2023-05-20T12:33:26;94851.44;;;19.60;55.93
11099;BME280;12223;42.650;23.364;2023-05-20T12:35:53;94855.56;;;19.02;64.56
11099;BME280;12223;42.650;23.364;2023-05-20T12:38:20;94825.59;;;18.49;68.37
11099;BME280;12223;42.650;23.364;2023-05-20T12:40:49;94851.31;;;18.76;66.70
11099;BME280;12223;42.650;23.364;2023-05-20T12:43:19;94849.97;;;18.88;66.27
11099;BME280;12223;42.650;23.364;2023-05-20T12:45:50;94848.31;;;18.98;67.98
11099;BME280;12223;42.650;23.364;2023-05-20T12:48:18;94845.13;;;19.06;69.65
11099;BME280;12223;42.650;23.364;2023-05-20T12:50:45;94844.03;;;19.22;68.36
11099;BME280;12223;42.650;23.364;2023-05-20T12:53:17;94843.97;;;19.37;66.93
11099;BME280;12223;42.650;23.364;2023-05-20T12:55:55;94832.97;;;19.44;66.00
11099;BME280;12223;42.650;23.364;2023-05-20T12:58:22;94831.09;;;19.59;65.85
11099;BME280;12223;42.650;23.364;2023-05-20T13:00:49;94832.84;;;19.89;65.79
11099;BME280;12223;42.650;23.364;2023-05-20T13:03:18;94811.63;;;19.93;64.49